Time;durP1;ratioP1;P1;durP2;ratioP2;P2;SDS_P1;SDS_P2;PMS_P1;PMS_P2;Temp;Humidity;BMP_temperature;BMP_pressure;BME280_temperature;BME280_humidity;BME280_pressure;Samples;Min_cycle;Max_cycle;Signal;HPM_P1;HPM_P2
2023/05/17 00:01:04;;;;;;;15.07;4.60;;;10.70;99.90;;;;;;5074897;28;20184;-61
2023/05/17 00:03:33;;;;;;;17.10;4.30;;;10.70;99.90;;;;;;5072844;28;20181;-61
2023/05/17 00:06:02;;;;;;;20.47;4.73;;;10.60;99.90;;;;;;5074323;28;20180;-61
2023/05/17 00:08:31;;;;;;;19.10;5.07;;;10.60;99.90;;;;;;5075420;28;20188;-61
2023/05/17 00:10:59;;;;;;;14.40;4.87;;;10.70;99.90;;;;;;5074556;28;20298;-61
2023/05/17 00:13:28;;;;;;;21.27;4.53;;;10.60;99.90;;;;;;5075223;28;20165;-61
2023/05/17 00:15:57;;;;;;;18.57;4.70;;;10.50;99.90;;;;;;5074853;28;20463;-59
2023/05/17 00:18:27;;;;;;;15.93;4.30;;;10.50;99.90;;;;;;5074586;28;20176;-61
2023/05/17 00:20:55;;;;;;;14.03;3.30;;;10.50;99.90;;;;;;5074160;28;20173;-61
2023/05/17 00:23:24;;;;;;;20.67;4.17;;;10.50;99.90;;;;;;5073267;28;20635;-60
2023/05/17 00:25:53;;;;;;;11.40;3.50;;;10.50;99.90;;;;;;5074274;28;20169;-61
2023/05/17 00:28:22;;;;;;;16.83;4.17;;;10.50;99.90;;;;;;5073968;28;20335;-60
2023/05/17 00:30:50;;;;;;;19.73;4.47;;;10.40;99.90;;;;;;5074526;28;20294;-61
2023/05/17 00:33:19;;;;;;;20.43;4.40;;;10.40;99.90;;;;;;5074143;28;20179;-61
2023/05/17 00:35:44;;;;;;;16.63;4.23;;;10.40;99.90;;;;;;5075546;28;20574;-61
2023/05/17 00:38:10;;;;;;;17.60;4.27;;;10.40;99.90;;;;;;5075414;28;20259;-61
2023/05/17 00:40:36;;;;;;;10.10;3.50;;;10.40;99.90;;;;;;5076898;28;20165;-61
2023/05/17 00:43:01;;;;;;;17.63;5.13;;;10.40;99.90;;;;;;5077765;28;20259;-61
2023/05/17 00:45:27;;;;;;;15.47;4.20;;;10.40;99.90;;;;;;5078749;28;20540;-61
2023/05/17 00:47:52;;;;;;;20.63;3.67;;;10.30;99.90;;;;;;5079388;28;20261;-61
2023/05/17 00:50:18;;;;;;;14.20;3.67;;;10.30;99.90;;;;;;5078965;28;20391;-61
2023/05/17 00:52:44;;;;;;;17.43;3.83;;;10.30;99.90;;;;;;5079823;28;20169;-63
2023/05/17 00:55:10;;;;;;;19.10;3.67;;;10.30;99.90;;;;;;5080363;28;20176;-61
2023/05/17 00:57:36;;;;;;;20.20;4.00;;;10.30;99.90;;;;;;5079302;28;20177;-62
2023/05/17 01:00:03;;;;;;;14.43;4.77;;;10.30;99.90;;;;;;5077769;28;20273;-62
2023/05/17 01:02:28;;;;;;;17.77;4.10;;;10.30;99.90;;;;;;5077076;28;20584;-61
2023/05/17 01:04:54;;;;;;;15.27;4.23;;;10.30;99.90;;;;;;5077194;28;20180;-61
2023/05/17 01:07:20;;;;;;;22.57;4.37;;;10.30;99.90;;;;;;5078330;28;20694;-61
2023/05/17 01:09:46;;;;;;;23.13;3.60;;;10.30;99.90;;;;;;5077448;28;20165;-61
2023/05/17 01:12:20;;;;;;;16.53;4.17;;;10.20;99.90;;;;;;5077951;28;20168;-61
2023/05/17 01:15:05;;;;;;;17.90;3.77;;;10.20;99.90;;;;;;5077505;28;20164;-61
2023/05/17 01:18:10;;;;;;;15.73;4.03;;;10.20;99.90;;;;;;5077037;28;20599;-61
2023/05/17 01:20:38;;;;;;;20.00;3.87;;;10.30;99.90;;;;;;5077299;28;20182;-61
2023/05/17 01:23:21;;;;;;;16.13;4.17;;;10.20;99.90;;;;;;5076682;28;20219;-61
2023/05/17 01:26:17;;;;;;;15.13;3.60;;;10.20;99.90;;;;;;5076762;28;20665;-61
2023/05/17 01:28:45;;;;;;;12.50;3.73;;;10.20;99.90;;;;;;5078851;28;20196;-61
2023/05/17 01:31:13;;;;;;;15.03;3.83;;;10.20;99.90;;;;;;5078961;28;20222;-61
2023/05/17 01:33:38;;;;;;;15.87;3.80;;;10.10;99.90;;;;;;5078114;28;20176;-62
2023/05/17 01:36:05;;;;;;;9.90;3.27;;;10.10;99.90;;;;;;5078609;28;20462;-62
2023/05/17 01:38:30;;;;;;;18.87;3.10;;;10.10;99.90;;;;;;5078605;28;20179;-63
2023/05/17 01:41:33;;;;;;;15.53;3.77;;;10.10;99.90;;;;;;5079897;28;20177;-62
2023/05/17 01:44:11;;;;;;;15.43;3.57;;;10.10;99.90;;;;;;5078662;28;20196;-62
2023/05/17 01:46:41;;;;;;;17.77;3.47;;;10.10;99.90;;;;;;5079779;28;20716;-63
2023/05/17 01:49:15;;;;;;;17.37;4.23;;;10.00;99.90;;;;;;5077721;28;20580;-61
2023/05/17 01:51:51;;;;;;;10.07;2.93;;;10.00;99.90;;;;;;5076713;28;20418;-61
2023/05/17 01:54:23;;;;;;;16.50;3.80;;;10.00;99.90;;;;;;5077997;28;20260;-61
2023/05/17 01:56:56;;;;;;;12.33;2.03;;;10.00;99.90;;;;;;5078126;28;20518;-61
2023/05/17 01:59:24;;;;;;;17.13;3.33;;;9.90;99.90;;;;;;5078347;28;20169;-62
2023/05/17 02:02:05;;;;;;;16.13;3.30;;;9.90;99.90;;;;;;5077913;28;20267;-62
2023/05/17 02:04:31;;;;;;;13.23;3.60;;;9.80;99.90;;;;;;5078635;28;20176;-62
2023/05/17 02:06:58;;;;;;;11.63;4.23;;;9.80;99.90;;;;;;5078488;28;20180;-62
2023/05/17 02:09:23;;;;;;;13.17;2.63;;;9.80;99.90;;;;;;5079001;28;20193;-62
2023/05/17 02:11:49;;;;;;;13.53;3.17;;;9.70;99.90;;;;;;5078356;28;20499;-63
2023/05/17 02:14:14;;;;;;;11.23;2.60;;;9.70;99.90;;;;;;5077724;28;20456;-62
2023/05/17 02:16:40;;;;;;;12.33;3.43;;;9.70;99.90;;;;;;5077282;28;20264;-63
2023/05/17 02:19:07;;;;;;;17.80;3.30;;;9.70;99.90;;;;;;5076981;28;20273;-63
2023/05/17 02:21:33;;;;;;;8.53;2.13;;;9.70;99.90;;;;;;5076526;28;20632;-63
2023/05/17 02:23:59;;;;;;;14.00;2.93;;;9.70;99.90;;;;;;5075913;28;20279;-62
2023/05/17 02:26:25;;;;;;;11.07;2.40;;;9.70;99.90;;;;;;5076473;28;20211;-63
2023/05/17 02:28:50;;;;;;;12.13;2.70;;;9.70;99.90;;;;;;5076765;28;20208;-62
2023/05/17 02:31:16;;;;;;;10.57;2.97;;;9.70;99.90;;;;;;5076289;28;20168;-62
2023/05/17 02:33:41;;;;;;;9.40;2.70;;;9.60;99.90;;;;;;5077346;28;20185;-62
2023/05/17 02:36:07;;;;;;;9.67;2.10;;;9.60;99.90;;;;;;5077243;28;20193;-62
2023/05/17 02:38:33;;;;;;;11.73;3.00;;;9.60;99.90;;;;;;5078273;28;20473;-60
2023/05/17 02:40:58;;;;;;;10.73;2.87;;;9.50;99.90;;;;;;5078092;28;20161;-63
2023/05/17 02:43:23;;;;;;;10.53;2.47;;;9.50;99.90;;;;;;5077522;28;20224;-61
2023/05/17 02:45:49;;;;;;;10.90;2.50;;;9.50;99.90;;;;;;5077062;28;20661;-62
2023/05/17 02:48:15;;;;;;;20.27;3.70;;;9.50;99.90;;;;;;5076963;28;20207;-61
2023/05/17 02:50:49;;;;;;;12.67;2.80;;;9.50;99.90;;;;;;5076638;28;20160;-61
2023/05/17 02:53:15;;;;;;;10.07;3.27;;;9.50;99.90;;;;;;5077091;28;20164;-62
2023/05/17 02:55:40;;;;;;;15.40;3.30;;;9.40;99.90;;;;;;5076847;28;20468;-62
2023/05/17 02:58:06;;;;;;;10.60;2.33;;;9.40;99.90;;;;;;5076844;28;20168;-62
2023/05/17 03:00:31;;;;;;;7.80;2.13;;;9.40;99.90;;;;;;5076924;28;20189;-62
2023/05/17 03:03:38;;;;;;;16.00;2.97;;;9.40;99.90;;;;;;5076477;28;20205;-62
2023/05/17 03:06:04;;;;;;;8.40;2.50;;;9.40;99.90;;;;;;5077950;28;20179;-62
2023/05/17 03:08:30;;;;;;;13.80;2.97;;;9.30;99.90;;;;;;5077054;28;20209;-62
2023/05/17 03:10:55;;;;;;;11.10;2.50;;;9.20;99.90;;;;;;5077070;28;20200;-62
2023/05/17 03:13:21;;;;;;;10.80;2.90;;;9.20;99.90;;;;;;5077727;28;20207;-62
2023/05/17 03:15:47;;;;;;;8.80;2.63;;;9.20;99.90;;;;;;5076289;28;20200;-62
2023/05/17 03:18:13;;;;;;;9.33;1.97;;;9.20;99.90;;;;;;5076803;28;20275;-62
2023/05/17 03:20:38;;;;;;;9.83;3.23;;;9.20;99.90;;;;;;5075824;28;20745;-62
2023/05/17 03:23:04;;;;;;;9.23;2.27;;;9.20;99.90;;;;;;5075640;28;20676;-62
2023/05/17 03:25:29;;;;;;;9.37;1.93;;;9.20;99.90;;;;;;5074733;28;20173;-62
2023/05/17 03:27:55;;;;;;;9.90;2.30;;;9.20;99.90;;;;;;5075618;28;20235;-62
2023/05/17 03:30:20;;;;;;;10.03;2.23;;;9.20;99.90;;;;;;5073840;28;20168;-62
2023/05/17 03:32:46;;;;;;;12.50;3.10;;;9.20;99.90;;;;;;5074804;28;20181;-61
2023/05/17 03:35:12;;;;;;;13.37;3.47;;;9.10;99.90;;;;;;5075316;28;20250;-62
2023/05/17 03:37:37;;;;;;;10.43;1.70;;;9.10;99.90;;;;;;5075250;28;20221;-62
2023/05/17 03:40:14;;;;;;;12.83;2.40;;;9.10;99.90;;;;;;5076885;28;20259;-62
2023/05/17 03:42:40;;;;;;;9.27;2.17;;;9.10;99.90;;;;;;5075919;28;20233;-61
2023/05/17 03:45:06;;;;;;;10.20;1.90;;;9.10;99.90;;;;;;5076640;28;20177;-62
2023/05/17 03:47:32;;;;;;;14.87;2.67;;;9.10;99.90;;;;;;5076987;28;20325;-62
2023/05/17 03:49:57;;;;;;;14.60;2.97;;;9.10;99.90;;;;;;5076213;28;20227;-62
2023/05/17 03:52:23;;;;;;;8.83;2.00;;;9.10;99.90;;;;;;5071482;28;20263;-61
2023/05/17 03:54:50;;;;;;;10.70;2.13;;;9.10;99.90;;;;;;5071384;28;20175;-61
2023/05/17 03:57:16;;;;;;;7.77;2.67;;;9.00;99.90;;;;;;5071417;28;20173;-62
2023/05/17 03:59:41;;;;;;;12.50;2.57;;;9.00;99.90;;;;;;5071279;28;20169;-62
2023/05/17 04:02:07;;;;;;;8.90;1.60;;;9.00;99.90;;;;;;5066852;28;20187;-62
2023/05/17 04:04:32;;;;;;;9.57;2.70;;;9.00;99.90;;;;;;5067144;28;20275;-62
2023/05/17 04:06:58;;;;;;;10.63;2.80;;;9.00;99.90;;;;;;5067218;28;20293;-62
2023/05/17 04:09:24;;;;;;;13.67;3.13;;;9.00;99.90;;;;;;5068534;28;20356;-62
2023/05/17 04:11:50;;;;;;;17.17;2.87;;;8.90;99.90;;;;;;5069016;28;20203;-62
2023/05/17 04:14:17;;;;;;;15.67;2.77;;;8.90;99.90;;;;;;5068358;28;20226;-62
2023/05/17 04:16:43;;;;;;;19.77;2.70;;;8.90;99.90;;;;;;5065513;28;20619;-62
2023/05/17 04:19:08;;;;;;;12.53;2.00;;;9.00;99.90;;;;;;5067448;28;20225;-62
2023/05/17 04:21:34;;;;;;;16.80;2.53;;;9.00;99.90;;;;;;5069485;28;20229;-64
2023/05/17 04:24:00;;;;;;;10.80;3.00;;;9.00;99.90;;;;;;5073522;28;20165;-61
2023/05/17 04:26:26;;;;;;;8.73;2.10;;;9.00;99.90;;;;;;5074267;28;20527;-62
2023/05/17 04:28:51;;;;;;;13.53;2.50;;;9.00;99.90;;;;;;5073502;28;20207;-62
2023/05/17 04:31:17;;;;;;;11.70;2.87;;;9.00;99.90;;;;;;5075150;28;20509;-62
2023/05/17 04:33:43;;;;;;;11.00;2.77;;;9.00;99.90;;;;;;5074178;28;20180;-62
2023/05/17 04:36:08;;;;;;;11.10;3.07;;;9.00;99.90;;;;;;5075878;28;20161;-62
2023/05/17 04:38:34;;;;;;;12.10;2.50;;;9.00;99.90;;;;;;5074958;28;20275;-62
2023/05/17 04:41:01;;;;;;;9.60;2.97;;;9.00;99.90;;;;;;5073256;28;20181;-62
2023/05/17 04:43:27;;;;;;;14.70;3.77;;;9.00;99.90;;;;;;5074229;28;20213;-62
2023/05/17 04:45:56;;;;;;;16.63;4.13;;;9.00;99.90;;;;;;5071989;28;20177;-61
2023/05/17 04:48:24;;;;;;;16.50;2.87;;;9.00;99.90;;;;;;5070178;28;20254;-61
2023/05/17 04:50:50;;;;;;;13.03;2.60;;;9.00;99.90;;;;;;5068612;28;20486;-61
2023/05/17 04:53:15;;;;;;;13.60;3.40;;;9.00;99.90;;;;;;5067431;28;20564;-61
2023/05/17 04:55:41;;;;;;;9.00;2.20;;;9.00;99.90;;;;;;5067855;28;20157;-60
2023/05/17 04:58:08;;;;;;;10.97;2.50;;;9.10;99.90;;;;;;5067474;28;20181;-62
2023/05/17 05:00:33;;;;;;;8.93;2.40;;;9.10;99.90;;;;;;5067099;28;20187;-62
2023/05/17 05:02:59;;;;;;;15.23;3.83;;;9.10;99.90;;;;;;5069530;28;20161;-59
2023/05/17 05:05:24;;;;;;;8.17;1.77;;;9.10;99.90;;;;;;5069806;28;20259;-61
2023/05/17 05:07:53;;;;;;;9.33;2.67;;;9.10;99.90;;;;;;5070797;28;20680;-60
2023/05/17 05:10:18;;;;;;;13.03;2.40;;;9.10;99.90;;;;;;5070988;28;20252;-62
2023/05/17 05:12:44;;;;;;;15.47;2.77;;;9.20;99.90;;;;;;5071515;28;20252;-60
2023/05/17 05:15:10;;;;;;;13.33;3.63;;;9.20;99.90;;;;;;5068136;28;20199;-61
2023/05/17 05:17:35;;;;;;;14.33;2.67;;;9.20;99.90;;;;;;5057659;28;20169;-59
2023/05/17 05:20:01;;;;;;;21.70;3.60;;;9.20;99.90;;;;;;5059447;28;20173;-62
2023/05/17 05:22:27;;;;;;;10.67;2.43;;;9.20;99.90;;;;;;5065905;28;20168;-61
2023/05/17 05:24:52;;;;;;;19.00;3.00;;;9.20;99.90;;;;;;5069730;28;20215;-62
2023/05/17 05:27:18;;;;;;;16.37;3.30;;;9.20;99.90;;;;;;5071801;28;20646;-61
2023/05/17 05:29:45;;;;;;;13.47;2.33;;;9.20;99.90;;;;;;5076224;28;20177;-62
2023/05/17 05:32:10;;;;;;;17.83;3.53;;;9.20;99.90;;;;;;5075334;28;20678;-62
2023/05/17 05:34:37;;;;;;;12.23;3.40;;;9.10;99.90;;;;;;5076206;28;20181;-61
2023/05/17 05:37:03;;;;;;;16.47;3.87;;;9.20;99.90;;;;;;5076512;28;20177;-62
2023/05/17 05:39:28;;;;;;;18.73;4.40;;;9.20;99.90;;;;;;5075965;28;20187;-61
2023/05/17 05:41:54;;;;;;;14.47;3.80;;;9.20;99.90;;;;;;5073927;28;20762;-62
2023/05/17 05:44:21;;;;;;;14.83;3.03;;;9.20;99.90;;;;;;5075483;28;20215;-62
2023/05/17 05:46:46;;;;;;;9.67;2.80;;;9.30;99.90;;;;;;5075185;28;20181;-62
2023/05/17 05:49:12;;;;;;;10.97;2.50;;;9.30;99.90;;;;;;5074499;28;20220;-62
2023/05/17 05:51:37;;;;;;;15.93;3.77;;;9.30;99.90;;;;;;5074301;28;20435;-62
2023/05/17 05:54:03;;;;;;;13.63;2.67;;;9.30;99.90;;;;;;5075254;28;20191;-62
2023/05/17 05:56:28;;;;;;;9.17;2.70;;;9.30;99.90;;;;;;5074086;28;20278;-62
2023/05/17 05:58:56;;;;;;;16.33;3.40;;;9.30;99.90;;;;;;5073377;28;20169;-62
2023/05/17 06:01:21;;;;;;;12.70;2.30;;;9.40;99.90;;;;;;5072111;28;20165;-62
2023/05/17 06:03:47;;;;;;;13.33;2.50;;;9.40;99.90;;;;;;5069726;28;20215;-62
2023/05/17 06:06:15;;;;;;;10.37;2.80;;;9.50;99.90;;;;;;5069558;28;20165;-62
2023/05/17 06:08:40;;;;;;;10.93;2.33;;;9.50;99.90;;;;;;5067928;28;20307;-62
2023/05/17 06:11:06;;;;;;;10.63;2.10;;;9.50;99.90;;;;;;5069331;28;20857;-62
2023/05/17 06:13:32;;;;;;;8.87;2.23;;;9.50;99.90;;;;;;5069736;28;20183;-63
2023/05/17 06:15:58;;;;;;;10.07;2.33;;;9.50;99.90;;;;;;5067780;28;20645;-61
2023/05/17 06:18:24;;;;;;;9.57;2.40;;;9.60;99.90;;;;;;5066295;28;20732;-61
2023/05/17 06:20:49;;;;;;;7.17;2.60;;;9.70;99.90;;;;;;5065479;28;20211;-62
2023/05/17 06:23:15;;;;;;;7.00;2.40;;;9.80;99.90;;;;;;5064901;28;20168;-62
2023/05/17 06:25:41;;;;;;;14.37;2.50;;;9.80;99.90;;;;;;5066065;28;20248;-62
2023/05/17 06:28:08;;;;;;;9.67;2.10;;;9.80;99.90;;;;;;5064605;28;20209;-62
2023/05/17 06:30:34;;;;;;;6.07;2.20;;;9.70;99.90;;;;;;5063520;28;20173;-62
2023/05/17 06:33:00;;;;;;;12.80;2.33;;;9.70;99.90;;;;;;5063992;28;20189;-60
2023/05/17 06:35:25;;;;;;;10.83;2.40;;;9.70;99.90;;;;;;5064456;28;20168;-62
2023/05/17 06:37:54;;;;;;;11.27;2.40;;;9.60;99.90;;;;;;5064517;28;20259;-61
2023/05/17 06:40:20;;;;;;;7.03;1.90;;;9.60;99.90;;;;;;5065586;28;20184;-62
2023/05/17 06:42:45;;;;;;;7.30;2.30;;;9.60;99.90;;;;;;5066252;28;20220;-61
2023/05/17 06:45:11;;;;;;;11.43;2.13;;;9.50;99.90;;;;;;5069341;28;20212;-62
2023/05/17 06:47:37;;;;;;;10.20;2.17;;;9.50;99.90;;;;;;5070370;28;20238;-61
2023/05/17 06:50:03;;;;;;;13.70;2.20;;;9.50;99.90;;;;;;5071229;28;20172;-61
2023/05/17 06:52:28;;;;;;;18.87;2.27;;;9.60;99.90;;;;;;5069865;28;20259;-62
2023/05/17 06:54:54;;;;;;;8.77;2.30;;;9.60;99.90;;;;;;5070488;28;20427;-62
2023/05/17 06:57:19;;;;;;;11.27;2.53;;;9.60;99.90;;;;;;5071006;28;20168;-61
2023/05/17 06:59:45;;;;;;;7.53;2.03;;;9.60;99.90;;;;;;5070782;28;20529;-62
2023/05/17 07:02:11;;;;;;;12.10;2.83;;;9.60;99.90;;;;;;5072089;28;20191;-61
2023/05/17 07:04:36;;;;;;;13.77;2.53;;;9.70;99.90;;;;;;5069365;28;20180;-62
2023/05/17 07:07:02;;;;;;;13.20;2.43;;;9.70;99.90;;;;;;5068502;28;20199;-60
2023/05/17 07:09:27;;;;;;;10.13;3.17;;;9.80;99.90;;;;;;5069198;28;20717;-62
2023/05/17 07:11:53;;;;;;;8.80;2.37;;;9.80;99.90;;;;;;5069289;28;20223;-62
2023/05/17 07:14:19;;;;;;;8.33;2.07;;;9.80;99.90;;;;;;5069996;28;20183;-62
2023/05/17 07:16:44;;;;;;;9.10;2.07;;;9.80;99.90;;;;;;5071366;28;20691;-62
2023/05/17 07:19:10;;;;;;;10.13;1.80;;;9.80;99.90;;;;;;5071535;28;20184;-62
2023/05/17 07:21:35;;;;;;;8.63;2.33;;;9.80;99.90;;;;;;5068856;28;20173;-62
2023/05/17 07:24:01;;;;;;;11.00;2.60;;;9.80;99.90;;;;;;5069940;28;20229;-62
2023/05/17 07:26:27;;;;;;;11.87;3.53;;;9.90;99.90;;;;;;5070411;28;20199;-62
2023/05/17 07:28:53;;;;;;;10.50;2.03;;;10.00;99.90;;;;;;5068286;28;20253;-62
2023/05/17 07:31:19;;;;;;;9.30;2.37;;;10.00;99.90;;;;;;5067993;28;20658;-63
2023/05/17 07:33:44;;;;;;;8.70;2.30;;;10.00;99.90;;;;;;5066601;28;20173;-63
2023/05/17 07:36:10;;;;;;;10.90;2.53;;;10.00;99.90;;;;;;5066180;28;20169;-62
2023/05/17 07:38:35;;;;;;;10.30;1.70;;;9.90;99.90;;;;;;5065270;28;20271;-62
2023/05/17 07:41:02;;;;;;;11.93;2.60;;;10.00;99.90;;;;;;5065959;28;20275;-62
2023/05/17 07:43:28;;;;;;;10.20;1.80;;;10.00;99.90;;;;;;5071261;28;20248;-62
2023/05/17 07:45:54;;;;;;;6.13;1.63;;;10.00;99.90;;;;;;5072102;28;20196;-62
2023/05/17 07:48:19;;;;;;;12.80;2.70;;;10.10;99.90;;;;;;5071513;28;20235;-62
2023/05/17 07:50:45;;;;;;;7.20;2.43;;;10.10;99.90;;;;;;5069166;28;20263;-62
2023/05/17 07:53:20;;;;;;;7.87;2.57;;;10.10;99.90;;;;;;5068352;28;20175;-62
2023/05/17 07:55:47;;;;;;;6.97;2.20;;;10.10;99.90;;;;;;5069476;28;20168;-62
2023/05/17 07:58:13;;;;;;;9.03;1.57;;;10.10;99.90;;;;;;5067861;28;20226;-61
2023/05/17 08:00:39;;;;;;;13.50;2.53;;;10.20;99.90;;;;;;5065693;28;20180;-62
2023/05/17 08:03:06;;;;;;;9.07;2.40;;;10.20;99.90;;;;;;5065259;28;20177;-62
2023/05/17 08:05:33;;;;;;;8.57;2.50;;;10.20;99.90;;;;;;5066239;28;20172;-62
2023/05/17 08:07:59;;;;;;;10.17;2.20;;;10.30;99.90;;;;;;5066150;28;20231;-61
2023/05/17 08:10:25;;;;;;;12.57;2.53;;;10.30;99.90;;;;;;5064402;28;20200;-62
2023/05/17 08:12:52;;;;;;;6.63;2.17;;;10.30;99.90;;;;;;5063526;28;20714;-62
2023/05/17 08:15:17;;;;;;;9.57;2.17;;;10.30;99.90;;;;;;5060516;28;20180;-61
2023/05/17 08:17:43;;;;;;;7.47;2.17;;;10.30;99.90;;;;;;5052101;28;20436;-62
2023/05/17 08:20:09;;;;;;;12.63;2.50;;;10.30;99.90;;;;;;5050408;28;20199;-63
2023/05/17 08:22:35;;;;;;;10.13;2.47;;;10.20;99.90;;;;;;5059191;28;20564;-62
2023/05/17 08:25:03;;;;;;;9.00;2.30;;;10.20;99.90;;;;;;5062225;28;20259;-61
2023/05/17 08:27:31;;;;;;;9.53;1.93;;;10.30;99.90;;;;;;5043113;28;20203;-62
2023/05/17 08:29:58;;;;;;;7.40;2.37;;;10.30;99.90;;;;;;5059864;28;20256;-62
2023/05/17 08:32:24;;;;;;;8.37;2.37;;;10.30;99.90;;;;;;5060965;28;20173;-62
2023/05/17 08:34:49;;;;;;;9.07;3.07;;;10.30;99.90;;;;;;5061694;28;20263;-62
2023/05/17 08:37:16;;;;;;;11.07;2.57;;;10.30;99.90;;;;;;5064065;28;20256;-62
2023/05/17 08:39:41;;;;;;;9.37;2.37;;;10.30;99.90;;;;;;5063557;28;20718;-62
2023/05/17 08:42:07;;;;;;;9.93;2.63;;;10.30;99.90;;;;;;5065877;28;20212;-61
2023/05/17 08:44:33;;;;;;;9.30;2.57;;;10.30;99.90;;;;;;5069304;28;20180;-62
2023/05/17 08:46:59;;;;;;;8.07;1.83;;;10.40;99.90;;;;;;5070058;28;20184;-62
2023/05/17 08:49:36;;;;;;;7.73;2.87;;;10.50;99.90;;;;;;5067842;28;20200;-62
2023/05/17 08:52:08;;;;;;;7.10;1.70;;;10.60;99.90;;;;;;5068963;28;20175;-62
2023/05/17 08:54:36;;;;;;;9.60;2.17;;;10.70;99.90;;;;;;5069401;28;20173;-62
2023/05/17 08:57:05;;;;;;;7.17;1.83;;;10.70;99.90;;;;;;5053060;28;20200;-62
2023/05/17 08:59:34;;;;;;;11.40;2.70;;;10.70;99.90;;;;;;5052997;28;20185;-62
2023/05/17 09:02:01;;;;;;;11.73;2.13;;;10.70;99.90;;;;;;5069814;28;20273;-61
2023/05/17 09:04:28;;;;;;;8.73;2.23;;;10.70;99.90;;;;;;5071396;28;20204;-61
2023/05/17 09:06:54;;;;;;;10.47;3.53;;;10.80;99.90;;;;;;5069329;28;20619;-63
2023/05/17 09:09:20;;;;;;;9.97;2.63;;;10.90;99.90;;;;;;5067032;28;20235;-62
2023/05/17 09:11:46;;;;;;;10.87;2.03;;;10.90;99.90;;;;;;5067008;28;20615;-62
2023/05/17 09:14:15;;;;;;;13.57;2.57;;;10.90;99.90;;;;;;5065506;28;20763;-62
2023/05/17 09:16:42;;;;;;;14.87;3.33;;;10.90;99.90;;;;;;5065051;28;20176;-62
2023/05/17 09:19:16;;;;;;;12.43;2.27;;;10.90;99.90;;;;;;5066640;28;20260;-62
2023/05/17 09:21:48;;;;;;;12.83;2.80;;;10.90;99.90;;;;;;5065439;28;20555;-62
2023/05/17 09:24:13;;;;;;;7.70;2.00;;;10.90;99.90;;;;;;5064007;28;20176;-62
2023/05/17 09:26:44;;;;;;;10.97;2.30;;;10.90;99.90;;;;;;5062782;28;20173;-62
2023/05/17 09:29:11;;;;;;;12.63;3.07;;;10.90;99.90;;;;;;5064288;28;20227;-63
2023/05/17 09:31:39;;;;;;;11.87;2.53;;;10.90;99.90;;;;;;5066289;28;20192;-62
2023/05/17 09:34:08;;;;;;;8.27;2.43;;;10.90;99.90;;;;;;5065301;28;20161;-63
2023/05/17 09:36:42;;;;;;;12.47;2.80;;;10.90;99.90;;;;;;5064454;28;20169;-62
2023/05/17 09:39:11;;;;;;;11.07;2.80;;;10.90;99.90;;;;;;5065293;28;20776;-63
2023/05/17 09:41:44;;;;;;;7.17;2.77;;;10.90;99.90;;;;;;5067326;28;20150;-63
2023/05/17 09:44:10;;;;;;;14.83;2.93;;;10.90;99.90;;;;;;5051514;28;20180;-63
2023/05/17 09:46:46;;;;;;;11.17;2.97;;;10.90;99.90;;;;;;5066471;28;20173;-63
2023/05/17 09:49:13;;;;;;;10.13;2.60;;;10.90;99.90;;;;;;5067683;28;20184;-63
2023/05/17 09:51:45;;;;;;;12.47;2.13;;;10.90;99.90;;;;;;5051789;28;20229;-63
2023/05/17 09:54:11;;;;;;;11.00;2.77;;;10.90;99.90;;;;;;5064152;28;20211;-62
2023/05/17 09:56:38;;;;;;;9.10;2.20;;;10.90;99.90;;;;;;5065126;28;20216;-62
2023/05/17 09:59:15;;;;;;;7.33;2.30;;;10.90;99.90;;;;;;5068929;28;20187;-61
2023/05/17 10:01:43;;;;;;;7.13;3.20;;;11.00;99.90;;;;;;5067929;28;20278;-62
2023/05/17 10:04:11;;;;;;;6.50;2.37;;;11.10;99.90;;;;;;5068437;28;20153;-62
2023/05/17 10:06:40;;;;;;;10.13;2.53;;;11.20;99.90;;;;;;5068873;28;20149;-65
2023/05/17 10:09:10;;;;;;;11.10;2.60;;;11.20;99.90;;;;;;5049180;28;20204;-65
2023/05/17 10:11:37;;;;;;;9.37;2.63;;;11.20;99.90;;;;;;5067923;28;20202;-66
2023/05/17 10:14:17;;;;;;;9.10;1.60;;;11.30;99.90;;;;;;5066675;28;20173;-65
2023/05/17 10:16:44;;;;;;;8.33;2.30;;;11.50;99.90;;;;;;5068495;28;20207;-65
2023/05/17 10:19:13;;;;;;;7.70;1.90;;;11.40;99.90;;;;;;5068496;28;20197;-65
2023/05/17 10:21:41;;;;;;;6.33;1.83;;;11.40;99.90;;;;;;5067368;28;20176;-66
2023/05/17 10:24:08;;;;;;;7.20;1.87;;;11.50;99.90;;;;;;5066343;28;20169;-66
2023/05/17 10:26:35;;;;;;;11.17;2.73;;;11.60;99.90;;;;;;5066907;28;20677;-66
2023/05/17 10:29:09;;;;;;;9.47;2.20;;;11.70;99.90;;;;;;5068216;28;20181;-65
2023/05/17 10:31:37;;;;;;;11.40;2.60;;;11.70;99.90;;;;;;5049395;28;20255;-66
2023/05/17 10:34:05;;;;;;;10.03;2.70;;;11.80;99.90;;;;;;5064766;28;20169;-62
2023/05/17 10:36:31;;;;;;;8.97;2.23;;;11.70;99.90;;;;;;5066612;28;20195;-61
2023/05/17 10:38:59;;;;;;;13.60;2.40;;;11.80;99.90;;;;;;5066226;28;20172;-61
2023/05/17 10:41:32;;;;;;;8.03;2.03;;;11.80;99.90;;;;;;5066459;28;20179;-61
2023/05/17 10:44:01;;;;;;;8.07;2.03;;;11.80;99.90;;;;;;5066023;28;20255;-61
2023/05/17 10:46:29;;;;;;;5.93;2.13;;;11.80;99.90;;;;;;5050037;28;20206;-61
2023/05/17 10:48:57;;;;;;;9.57;2.13;;;11.90;99.90;;;;;;5066705;28;20177;-61
2023/05/17 10:51:25;;;;;;;6.63;1.67;;;11.80;99.90;;;;;;5065778;28;20235;-61
2023/05/17 10:54:11;;;;;;;8.00;1.53;;;11.90;99.90;;;;;;5063301;28;20200;-60
2023/05/17 10:57:00;;;;;;;4.07;2.10;;;12.00;99.90;;;;;;5064380;28;20148;-60
2023/05/17 10:59:28;;;;;;;9.50;1.50;;;12.00;99.90;;;;;;5062059;28;20738;-60
2023/05/17 11:02:03;;;;;;;6.40;2.23;;;11.80;99.90;;;;;;5063108;28;20176;-60
2023/05/17 11:04:43;;;;;;;9.73;1.87;;;11.80;99.90;;;;;;5058333;28;20806;-61
2023/05/17 11:07:28;;;;;;;7.17;2.00;;;11.80;99.90;;;;;;5058786;28;20770;-62
2023/05/17 11:09:55;;;;;;;7.80;2.00;;;11.90;99.90;;;;;;5057607;28;20177;-62
2023/05/17 11:12:41;;;;;;;5.47;1.73;;;11.80;99.90;;;;;;5059083;28;20161;-62
2023/05/17 11:15:10;;;;;;;8.17;2.00;;;11.80;99.90;;;;;;5058910;28;20165;-61
2023/05/17 11:17:42;;;;;;;10.07;1.87;;;11.80;99.90;;;;;;5062151;28;20169;-61
2023/05/17 11:20:28;;;;;;;6.67;1.43;;;11.80;99.90;;;;;;5064500;28;20731;-62
2023/05/17 11:23:20;;;;;;;9.40;1.97;;;11.70;99.90;;;;;;5047652;28;20295;-62
2023/05/17 11:25:49;;;;;;;6.37;1.20;;;11.80;99.90;;;;;;5062520;28;20235;-62
2023/05/17 11:28:20;;;;;;;8.57;1.50;;;11.90;99.90;;;;;;5047073;28;20291;-62
2023/05/17 11:30:54;;;;;;;4.10;1.47;;;12.10;99.90;;;;;;5061118;28;20828;-62
2023/05/17 11:33:43;;;;;;;3.87;1.10;;;12.30;99.90;;;;;;5060253;28;20315;-62
2023/05/17 11:36:20;;;;;;;6.70;1.70;;;12.40;99.90;;;;;;5045323;28;20193;-61
2023/05/17 11:39:11;;;;;;;7.63;1.53;;;12.40;99.90;;;;;;5060453;28;20164;-62
2023/05/17 11:41:52;;;;;;;5.47;1.43;;;12.60;99.90;;;;;;5060084;28;20165;-62
2023/05/17 11:44:34;;;;;;;8.50;1.63;;;12.80;99.90;;;;;;5040998;28;20763;-62
2023/05/17 11:47:02;;;;;;;7.70;1.40;;;12.70;99.90;;;;;;5041635;28;20173;-62
2023/05/17 11:49:31;;;;;;;4.40;1.40;;;12.60;99.90;;;;;;5041112;28;20659;-62
2023/05/17 11:51:59;;;;;;;7.07;1.77;;;12.40;99.90;;;;;;5042324;28;20564;-62
2023/05/17 11:54:26;;;;;;;7.33;2.00;;;12.40;99.90;;;;;;5041863;28;20161;-61
2023/05/17 11:56:53;;;;;;;5.03;1.67;;;12.40;99.90;;;;;;5039404;28;20180;-62
2023/05/17 11:59:19;;;;;;;5.97;1.67;;;12.40;99.90;;;;;;5019808;28;20257;-61
2023/05/17 12:01:48;;;;;;;6.27;1.43;;;12.50;99.90;;;;;;5037072;28;20621;-62
2023/05/17 12:04:25;;;;;;;3.43;1.30;;;12.70;99.90;;;;;;5038185;28;20723;-62
2023/05/17 12:06:54;;;;;;;3.93;1.00;;;12.70;99.90;;;;;;5039614;28;20263;-62
2023/05/17 12:09:20;;;;;;;4.70;1.20;;;12.80;99.90;;;;;;5039750;28;20793;-62
2023/05/17 12:11:46;;;;;;;1.70;0.80;;;12.90;99.90;;;;;;5040399;28;20287;-60
2023/05/17 12:14:17;;;;;;;4.13;1.20;;;13.00;99.90;;;;;;5040703;28;20166;-62
2023/05/17 12:16:52;;;;;;;4.77;1.50;;;13.10;99.90;;;;;;5039811;28;20173;-62
2023/05/17 12:19:28;;;;;;;6.53;1.50;;;13.00;99.90;;;;;;5021720;28;20184;-62
2023/05/17 12:22:06;;;;;;;7.10;1.40;;;13.10;99.90;;;;;;5033900;28;20196;-62
2023/05/17 12:24:41;;;;;;;5.60;1.67;;;13.10;99.90;;;;;;5016949;28;20180;-62
2023/05/17 12:27:08;;;;;;;7.20;1.57;;;13.00;99.90;;;;;;5037324;28;20474;-61
2023/05/17 12:29:34;;;;;;;5.97;2.00;;;13.00;99.90;;;;;;5038992;28;20197;-60
2023/05/17 12:32:00;;;;;;;7.77;1.60;;;12.90;99.90;;;;;;5039226;28;20638;-62
2023/05/17 12:34:27;;;;;;;5.50;1.50;;;12.90;99.90;;;;;;5040468;28;20165;-62
2023/05/17 12:36:53;;;;;;;7.77;2.40;;;12.80;99.90;;;;;;5040957;28;20451;-62
2023/05/17 12:39:22;;;;;;;7.07;1.73;;;12.80;99.90;;;;;;5041213;28;20271;-62
2023/05/17 12:41:51;;;;;;;10.50;2.53;;;12.80;99.90;;;;;;5041091;28;20169;-62
2023/05/17 12:44:17;;;;;;;10.47;2.17;;;12.90;99.90;;;;;;5056841;28;20181;-62
2023/05/17 12:46:44;;;;;;;8.17;2.13;;;12.90;99.90;;;;;;5059405;28;20176;-62
2023/05/17 12:49:10;;;;;;;11.60;2.40;;;12.80;99.90;;;;;;5060201;28;20192;-62
2023/05/17 12:51:44;;;;;;;8.70;2.83;;;12.90;99.90;;;;;;5061494;28;20192;-62